ΕΜΥ, Εθνική Μετεωρολογική Υπηρεσία - Δελτία Καιρού, Προγνώσεις

ΑΕΡΟΝΑΥΤΙΛΙΑ

GREEK AIRPORTS CODES

LGLE 311400Z AUTO 01008KT //// // ////// 10/00 Q1009 RE//=

EUROPEAN AIRPORTS CODES

LFPO 311400Z 25012KT 9999 FEW033 SCT043 08/03 Q1028 NOSIG=